createdAt,value
2023-03-04T00:00:00.764Z,-0.90
2023-03-04T00:02:27.563Z,-1.00
2023-03-04T00:04:54.369Z,-1.00
2023-03-04T00:07:21.332Z,-1.10
2023-03-04T00:09:48.156Z,-1.20
2023-03-04T00:12:15.278Z,-1.30
2023-03-04T00:14:41.917Z,-1.30
2023-03-04T00:17:08.897Z,-1.30
2023-03-04T00:19:35.763Z,-1.30
2023-03-04T00:22:04.418Z,-1.30
2023-03-04T00:24:31.623Z,-1.30
2023-03-04T00:26:58.654Z,-1.30
2023-03-04T00:29:25.628Z,-1.40
2023-03-04T00:31:52.501Z,-1.40
2023-03-04T00:34:19.498Z,-1.40
2023-03-04T00:36:46.603Z,-1.40
2023-03-04T00:39:13.628Z,-1.50
2023-03-04T00:41:40.484Z,-1.60
2023-03-04T00:44:08.576Z,-1.60
2023-03-04T00:46:35.230Z,-1.70
2023-03-04T00:49:02.140Z,-1.70
2023-03-04T00:51:29.027Z,-1.70
2023-03-04T00:53:58.511Z,-1.70
2023-03-04T00:56:26.717Z,-1.70
2023-03-04T00:58:53.507Z,-1.80
2023-03-04T01:01:20.348Z,-1.80
2023-03-04T01:03:47.113Z,-1.80
2023-03-04T01:06:14.527Z,-1.80
2023-03-04T01:08:41.331Z,-1.80
2023-03-04T01:11:08.608Z,-1.80
2023-03-04T01:13:35.439Z,-1.90
2023-03-04T01:16:03.528Z,-1.90
2023-03-04T01:18:30.621Z,-1.90
2023-03-04T01:20:57.388Z,-2.00
2023-03-04T01:23:24.186Z,-2.00
2023-03-04T01:25:51.080Z,-2.00
2023-03-04T01:28:19.127Z,-2.00
2023-03-04T01:30:47.868Z,-2.00
2023-03-04T01:33:14.825Z,-2.00
2023-03-04T01:35:42.442Z,-2.10
2023-03-04T01:38:09.223Z,-2.10
2023-03-04T01:40:37.218Z,-2.10
2023-03-04T01:43:04.237Z,-2.10
2023-03-04T01:45:32.273Z,-2.10
2023-03-04T01:47:59.026Z,-2.10
2023-03-04T01:50:32.593Z,-2.20
2023-03-04T01:52:59.916Z,-2.20
2023-03-04T01:55:27.252Z,-2.10
2023-03-04T01:57:55.634Z,-2.10
2023-03-04T02:00:32.433Z,-2.20
2023-03-04T02:03:03.860Z,-2.20
2023-03-04T02:05:31.393Z,-2.30
2023-03-04T02:07:59.432Z,-2.40
2023-03-04T02:10:26.655Z,-2.40
2023-03-04T02:12:54.218Z,-2.40
2023-03-04T02:15:22.026Z,-2.50
2023-03-04T02:17:49.548Z,-2.50
2023-03-04T02:20:41.493Z,-2.50
2023-03-04T02:23:17.239Z,-2.50
2023-03-04T02:26:09.527Z,-2.50
2023-03-04T02:28:36.253Z,-2.40
2023-03-04T02:31:03.254Z,-2.40
2023-03-04T02:33:30.528Z,-2.40
2023-03-04T02:35:59.403Z,-2.40
2023-03-04T02:38:26.354Z,-2.40
2023-03-04T02:40:54.650Z,-2.40
2023-03-04T02:43:21.532Z,-2.30
2023-03-04T02:45:50.721Z,-2.30
2023-03-04T02:48:21.162Z,-2.30
2023-03-04T02:50:53.282Z,-2.30
2023-03-04T02:53:21.019Z,-2.30
2023-03-04T02:55:49.435Z,-2.30
2023-03-04T02:58:17.281Z,-2.30
2023-03-04T03:00:43.964Z,-2.30
2023-03-04T03:03:11.747Z,-2.20
2023-03-04T03:05:39.444Z,-2.20
2023-03-04T03:08:07.455Z,-2.10
2023-03-04T03:10:34.558Z,-2.10
2023-03-04T03:13:02.013Z,-2.10
2023-03-04T03:15:29.640Z,-2.10
2023-03-04T03:17:56.942Z,-2.20
2023-03-04T03:20:23.784Z,-2.10
2023-03-04T03:22:50.537Z,-2.20
2023-03-04T03:25:17.690Z,-2.20
2023-03-04T03:27:44.352Z,-2.30
2023-03-04T03:30:14.792Z,-2.30
2023-03-04T03:32:41.612Z,-2.30
2023-03-04T03:35:08.869Z,-2.40
2023-03-04T03:37:35.664Z,-2.40
2023-03-04T03:40:02.545Z,-2.40
2023-03-04T03:42:29.364Z,-2.40
2023-03-04T03:44:56.378Z,-2.40
2023-03-04T03:47:23.383Z,-2.40
2023-03-04T03:49:50.076Z,-2.40
2023-03-04T03:52:16.950Z,-2.40
2023-03-04T03:54:44.814Z,-2.40
2023-03-04T03:57:11.567Z,-2.40
2023-03-04T03:59:38.317Z,-2.40
2023-03-04T04:02:05.328Z,-2.40
2023-03-04T04:04:32.506Z,-2.30
2023-03-04T04:06:59.421Z,-2.30
2023-03-04T04:09:26.141Z,-2.20
2023-03-04T04:11:52.910Z,-2.20
2023-03-04T04:14:19.625Z,-2.10
2023-03-04T04:16:47.360Z,-2.00
2023-03-04T04:19:19.018Z,-1.90
2023-03-04T04:21:46.162Z,-1.70
2023-03-04T04:24:13.196Z,-1.50
2023-03-04T04:26:40.226Z,-1.50
2023-03-04T04:29:06.916Z,-1.50
2023-03-04T04:31:34.078Z,-1.50
2023-03-04T04:34:00.672Z,-1.40
2023-03-04T04:36:27.627Z,-1.30
2023-03-04T04:38:54.326Z,-1.30
2023-03-04T04:41:36.159Z,-1.20
2023-03-04T04:44:03.019Z,-1.20
2023-03-04T04:46:30.096Z,-1.20
2023-03-04T04:48:56.704Z,-1.20
2023-03-04T04:51:23.482Z,-1.10
2023-03-04T04:53:50.243Z,-1.10
2023-03-04T04:56:20.453Z,-1.10
2023-03-04T04:58:48.226Z,-1.00
2023-03-04T05:01:15.596Z,-1.00
2023-03-04T05:03:42.629Z,-0.90
2023-03-04T05:06:10.504Z,-0.90
2023-03-04T05:08:37.200Z,-0.90
2023-03-04T05:11:05.484Z,-0.80
2023-03-04T05:13:33.072Z,-0.80
2023-03-04T05:15:59.995Z,-0.80
2023-03-04T05:18:27.708Z,-0.70
2023-03-04T05:20:57.142Z,-0.70
2023-03-04T05:23:25.376Z,-0.80
2023-03-04T05:25:52.521Z,-0.70
2023-03-04T05:28:19.324Z,-0.70
2023-03-04T05:30:46.701Z,-0.70
2023-03-04T05:33:15.340Z,-0.60
2023-03-04T05:35:43.582Z,-0.50
2023-03-04T05:38:13.094Z,-0.60
2023-03-04T05:40:41.032Z,-0.60
2023-03-04T05:43:08.293Z,-0.50
2023-03-04T05:45:35.023Z,-0.40
2023-03-04T05:48:03.124Z,-0.40
2023-03-04T05:50:30.358Z,-0.40
2023-03-04T05:52:57.304Z,-0.40
2023-03-04T05:55:24.005Z,-0.30
2023-03-04T05:57:51.826Z,-0.30
2023-03-04T06:00:18.785Z,-0.20
2023-03-04T06:02:45.610Z,-0.20
2023-03-04T06:05:14.082Z,-0.20
2023-03-04T06:07:43.054Z,-0.20
2023-03-04T06:10:12.987Z,-0.20
2023-03-04T06:12:39.940Z,-0.10
2023-03-04T06:15:07.268Z,-0.10
2023-03-04T06:17:34.030Z,-0.10
2023-03-04T06:20:00.831Z,0.00
2023-03-04T06:22:27.590Z,-0.10
2023-03-04T06:24:54.302Z,-0.10
2023-03-04T06:27:21.031Z,0.10
2023-03-04T06:29:47.789Z,0.20
2023-03-04T06:32:14.554Z,0.10
2023-03-04T06:34:41.354Z,0.10
2023-03-04T06:37:08.110Z,0.20
2023-03-04T06:39:34.975Z,0.20
2023-03-04T06:42:01.767Z,0.30
2023-03-04T06:44:28.624Z,0.30
2023-03-04T06:46:55.442Z,0.30
2023-03-04T06:49:22.139Z,0.20
2023-03-04T06:51:48.892Z,0.20
2023-03-04T06:54:15.771Z,0.30
2023-03-04T06:56:42.539Z,0.40
2023-03-04T06:59:09.322Z,0.40
2023-03-04T07:01:36.666Z,0.50
2023-03-04T07:04:03.733Z,0.50
2023-03-04T07:06:30.517Z,0.50
2023-03-04T07:08:57.624Z,0.40
2023-03-04T07:11:24.758Z,0.40
2023-03-04T07:13:52.175Z,0.40
2023-03-04T07:16:21.933Z,0.50
2023-03-04T07:18:49.295Z,0.50
2023-03-04T07:21:17.270Z,0.60
2023-03-04T07:23:44.264Z,0.70
2023-03-04T07:26:11.388Z,0.70
2023-03-04T07:28:38.180Z,0.80
2023-03-04T07:31:30.188Z,0.90
2023-03-04T07:34:08.071Z,1.00
2023-03-04T07:36:35.959Z,1.20
2023-03-04T07:39:04.400Z,1.20
2023-03-04T07:41:31.195Z,1.20
2023-03-04T07:43:58.741Z,1.30
2023-03-04T07:46:25.754Z,1.40
2023-03-04T07:48:52.551Z,1.50
2023-03-04T07:51:21.236Z,1.50
2023-03-04T07:53:52.949Z,1.60
2023-03-04T07:56:22.471Z,1.60
2023-03-04T07:58:50.161Z,1.70
2023-03-04T08:01:22.160Z,1.80
2023-03-04T08:03:49.130Z,1.80
2023-03-04T08:06:17.975Z,1.90
2023-03-04T08:08:45.209Z,2.00
2023-03-04T08:11:18.940Z,2.20
2023-03-04T08:13:46.146Z,2.20
2023-03-04T08:16:15.519Z,2.30
2023-03-04T08:18:48.080Z,2.30
2023-03-04T08:21:18.328Z,2.40
2023-03-04T08:23:46.233Z,2.40
2023-03-04T08:26:16.297Z,2.50
2023-03-04T08:28:43.624Z,2.40
2023-03-04T08:31:10.451Z,2.50
2023-03-04T08:33:37.224Z,2.50
2023-03-04T08:36:04.556Z,2.60
2023-03-04T08:38:32.037Z,2.60
2023-03-04T08:40:59.605Z,2.70
2023-03-04T08:43:27.047Z,2.70
2023-03-04T08:45:58.041Z,2.80
2023-03-04T08:48:25.389Z,2.90
2023-03-04T08:50:52.246Z,3.00
2023-03-04T08:53:20.776Z,3.10
2023-03-04T08:55:48.345Z,3.20
2023-03-04T08:58:15.058Z,3.30
2023-03-04T09:00:45.056Z,3.30
2023-03-04T09:03:13.041Z,3.40
2023-03-04T09:05:40.389Z,3.60
2023-03-04T09:08:08.089Z,3.80
2023-03-04T09:10:34.920Z,4.00
2023-03-04T09:13:02.033Z,4.00
2023-03-04T09:15:28.722Z,4.10
2023-03-04T09:17:55.609Z,4.20
2023-03-04T09:20:23.084Z,4.30
2023-03-04T09:22:49.922Z,4.40
2023-03-04T09:25:16.714Z,4.40
2023-03-04T09:27:43.982Z,4.50
2023-03-04T09:30:12.333Z,4.60
2023-03-04T09:32:39.210Z,4.90
2023-03-04T09:35:06.454Z,4.90
2023-03-04T09:37:33.396Z,5.00
2023-03-04T09:40:00.194Z,5.10
2023-03-04T09:42:33.418Z,5.20
2023-03-04T09:45:00.699Z,5.40
2023-03-04T09:47:28.288Z,5.40
2023-03-04T09:50:05.130Z,5.50
2023-03-04T09:53:13.588Z,5.50
2023-03-04T09:55:43.887Z,5.70
2023-03-04T09:58:48.388Z,5.80
2023-03-04T10:01:36.940Z,6.00
2023-03-04T10:04:18.559Z,6.20
2023-03-04T10:06:51.515Z,6.30
2023-03-04T10:09:26.311Z,6.40
2023-03-04T10:12:03.052Z,6.50
2023-03-04T10:14:43.247Z,6.60
2023-03-04T10:17:40.081Z,6.60
2023-03-04T10:20:21.724Z,6.70
2023-03-04T10:22:51.742Z,6.70
2023-03-04T10:25:30.819Z,6.70
2023-03-04T10:27:59.349Z,6.80
2023-03-04T10:30:54.844Z,7.00
2023-03-04T10:33:25.066Z,7.20
2023-03-04T10:36:14.642Z,7.20
2023-03-04T10:38:42.533Z,7.20
2023-03-04T10:41:19.743Z,7.40
2023-03-04T10:44:01.695Z,7.50
2023-03-04T10:46:29.504Z,7.60
2023-03-04T10:48:56.851Z,7.60
2023-03-04T10:51:26.292Z,7.50
2023-03-04T10:53:59.003Z,7.70
2023-03-04T10:56:45.660Z,7.50
2023-03-04T10:59:54.192Z,7.50
2023-03-04T11:02:27.702Z,7.60
2023-03-04T11:05:07.099Z,7.30
2023-03-04T11:07:54.058Z,7.20
2023-03-04T11:10:25.785Z,7.20
2023-03-04T11:13:00.417Z,7.10
2023-03-04T11:15:29.738Z,7.10
2023-03-04T11:18:03.903Z,7.00
2023-03-04T11:20:38.329Z,6.90
2023-03-04T11:23:12.123Z,6.80
2023-03-04T11:25:47.387Z,6.90
2023-03-04T11:28:16.895Z,6.90
2023-03-04T11:31:01.852Z,6.90
2023-03-04T11:33:41.635Z,6.90
2023-03-04T11:36:38.498Z,6.90
2023-03-04T11:39:17.009Z,7.00
2023-03-04T11:41:52.067Z,6.90
2023-03-04T11:44:18.985Z,7.10
2023-03-04T11:47:00.544Z,7.10
2023-03-04T11:49:49.230Z,7.00
2023-03-04T11:52:27.873Z,7.10
2023-03-04T11:55:26.957Z,7.10
2023-03-04T11:58:31.630Z,7.00
2023-03-04T12:01:09.855Z,7.00
2023-03-04T12:04:09.949Z,7.10
2023-03-04T12:06:57.971Z,7.10
2023-03-04T12:09:55.924Z,7.20
2023-03-04T12:12:50.115Z,7.10
2023-03-04T12:15:25.148Z,7.20
2023-03-04T12:18:06.708Z,7.20
2023-03-04T12:20:53.049Z,7.10
2023-03-04T12:23:38.369Z,7.10
2023-03-04T12:26:29.899Z,7.10
2023-03-04T12:29:02.132Z,7.10
2023-03-04T12:31:54.278Z,7.10
2023-03-04T12:34:31.956Z,7.10
2023-03-04T12:37:28.205Z,7.20
2023-03-04T12:40:19.475Z,7.30
2023-03-04T12:42:55.625Z,7.30
2023-03-04T12:45:31.412Z,7.10
2023-03-04T12:48:33.231Z,7.20
2023-03-04T12:51:52.094Z,7.20
2023-03-04T12:54:37.433Z,7.30
2023-03-04T12:57:09.550Z,7.40
2023-03-04T12:59:41.441Z,7.40
2023-03-04T13:02:22.828Z,7.50
2023-03-04T13:05:24.657Z,7.50
2023-03-04T13:08:04.078Z,7.70
2023-03-04T13:10:31.536Z,7.80
2023-03-04T13:13:02.437Z,7.90
2023-03-04T13:15:33.289Z,8.10
2023-03-04T13:18:04.316Z,8.30
2023-03-04T13:20:30.978Z,8.50
2023-03-04T13:22:59.433Z,8.50
2023-03-04T13:25:43.864Z,8.60
2023-03-04T13:28:10.821Z,8.80
2023-03-04T13:30:40.604Z,9.00
2023-03-04T13:33:16.308Z,9.00
2023-03-04T13:35:48.985Z,9.20
2023-03-04T13:38:38.643Z,9.10
2023-03-04T13:41:34.603Z,9.10
2023-03-04T13:44:06.014Z,9.10
2023-03-04T13:46:43.621Z,9.20
2023-03-04T13:49:20.118Z,9.20
2023-03-04T13:51:47.118Z,9.10
2023-03-04T13:54:16.068Z,9.10
2023-03-04T13:56:46.763Z,8.80
2023-03-04T13:59:21.206Z,8.80
2023-03-04T14:01:47.848Z,8.80
2023-03-04T14:04:19.194Z,8.80
2023-03-04T14:06:48.438Z,8.80
2023-03-04T14:09:27.203Z,8.80
2023-03-04T14:11:57.142Z,8.80
2023-03-04T14:14:48.408Z,8.80
2023-03-04T14:17:23.265Z,8.70
2023-03-04T14:19:52.479Z,8.50
2023-03-04T14:22:29.614Z,8.30
2023-03-04T14:24:59.078Z,8.10
2023-03-04T14:27:26.141Z,7.90
2023-03-04T14:29:56.875Z,7.90
2023-03-04T14:32:24.457Z,7.90
2023-03-04T14:34:54.642Z,7.80
2023-03-04T14:37:52.285Z,7.80
2023-03-04T14:40:30.082Z,7.90
2023-03-04T14:43:04.035Z,7.70
2023-03-04T14:45:31.116Z,7.70
2023-03-04T14:48:05.739Z,7.60
2023-03-04T14:50:34.082Z,7.60
2023-03-04T14:53:07.240Z,7.60
2023-03-04T14:55:34.740Z,7.50
2023-03-04T14:58:23.046Z,7.40
2023-03-04T15:01:03.396Z,7.50
2023-03-04T15:03:32.130Z,7.50
2023-03-04T15:06:21.279Z,7.60
2023-03-04T15:08:59.285Z,7.50
2023-03-04T15:11:48.021Z,7.50
2023-03-04T15:14:44.400Z,7.40
2023-03-04T15:17:37.289Z,7.30
2023-03-04T15:20:06.903Z,7.30
2023-03-04T15:22:54.501Z,7.30
2023-03-04T15:25:22.499Z,7.20
2023-03-04T15:27:50.197Z,7.20
2023-03-04T15:30:23.963Z,7.20
2023-03-04T15:32:51.206Z,7.10
2023-03-04T15:35:20.033Z,7.00
2023-03-04T15:37:49.634Z,7.10
2023-03-04T15:40:33.164Z,7.10
2023-03-04T15:43:02.731Z,7.10
2023-03-04T15:45:38.344Z,7.00
2023-03-04T15:48:11.779Z,7.00
2023-03-04T15:50:44.467Z,6.80
2023-03-04T15:53:37.819Z,6.90
2023-03-04T15:56:08.144Z,6.80
2023-03-04T15:58:35.494Z,6.80
2023-03-04T16:01:02.582Z,6.70
2023-03-04T16:03:29.619Z,6.70
2023-03-04T16:05:57.194Z,6.70
2023-03-04T16:08:25.227Z,6.70
2023-03-04T16:10:53.725Z,6.70
2023-03-04T16:13:23.551Z,6.60
2023-03-04T16:15:51.107Z,6.60
2023-03-04T16:18:18.069Z,6.50
2023-03-04T16:20:47.482Z,6.50
2023-03-04T16:23:23.615Z,6.50
2023-03-04T16:25:54.887Z,6.50
2023-03-04T16:28:22.329Z,6.50
2023-03-04T16:30:49.540Z,6.50
2023-03-04T16:33:16.379Z,6.50
2023-03-04T16:35:44.373Z,6.50
2023-03-04T16:38:23.115Z,6.50
2023-03-04T16:40:49.917Z,6.40
2023-03-04T16:43:16.790Z,6.50
2023-03-04T16:45:44.086Z,6.40
2023-03-04T16:48:11.094Z,6.40
2023-03-04T16:50:38.880Z,6.40
2023-03-04T16:53:10.913Z,6.40
2023-03-04T16:55:37.669Z,6.40
2023-03-04T16:58:06.870Z,6.50
2023-03-04T17:00:34.843Z,6.40
2023-03-04T17:03:02.122Z,6.40
2023-03-04T17:05:31.957Z,6.40
2023-03-04T17:07:58.998Z,6.40
2023-03-04T17:10:26.262Z,6.40
2023-03-04T17:12:53.263Z,6.40
2023-03-04T17:15:20.401Z,6.40
2023-03-04T17:17:47.333Z,6.30
2023-03-04T17:20:17.207Z,6.40
2023-03-04T17:22:44.748Z,6.40
2023-03-04T17:25:13.281Z,6.40
2023-03-04T17:27:40.771Z,6.40
2023-03-04T17:30:11.522Z,6.40
2023-03-04T17:32:40.021Z,6.40
2023-03-04T17:35:08.322Z,6.40
2023-03-04T17:37:35.739Z,6.40
2023-03-04T17:40:08.629Z,6.40
2023-03-04T17:42:35.478Z,6.40
2023-03-04T17:45:02.582Z,6.40
2023-03-04T17:47:29.386Z,6.40
2023-03-04T17:49:56.284Z,6.40
2023-03-04T17:52:23.092Z,6.40
2023-03-04T17:54:50.395Z,6.40
2023-03-04T17:57:17.324Z,6.40
2023-03-04T17:59:44.074Z,6.40
2023-03-04T18:02:15.999Z,6.40
2023-03-04T18:04:45.280Z,6.40
2023-03-04T18:07:12.102Z,6.40
2023-03-04T18:09:39.762Z,6.30
2023-03-04T18:12:06.939Z,6.30
2023-03-04T18:14:33.803Z,6.30
2023-03-04T18:17:00.775Z,6.30
2023-03-04T18:19:27.566Z,6.30
2023-03-04T18:21:54.500Z,6.30
2023-03-04T18:24:21.352Z,6.30
2023-03-04T18:26:48.790Z,6.30
2023-03-04T18:29:15.518Z,6.30
2023-03-04T18:31:42.372Z,6.30
2023-03-04T18:34:11.152Z,6.20
2023-03-04T18:36:37.958Z,6.20
2023-03-04T18:39:07.301Z,6.20
2023-03-04T18:41:34.331Z,6.20
2023-03-04T18:44:01.412Z,6.10
2023-03-04T18:46:34.367Z,6.10
2023-03-04T18:49:05.724Z,6.10
2023-03-04T18:51:32.942Z,6.20
2023-03-04T18:54:00.058Z,6.10
2023-03-04T18:56:38.398Z,6.20
2023-03-04T18:59:31.335Z,6.20
2023-03-04T19:02:01.359Z,6.20
2023-03-04T19:04:29.444Z,6.20
2023-03-04T19:06:56.240Z,6.10
2023-03-04T19:09:22.973Z,6.10
2023-03-04T19:11:49.784Z,6.10
2023-03-04T19:14:16.490Z,6.00
2023-03-04T19:16:43.421Z,6.00
2023-03-04T19:19:10.124Z,6.00
2023-03-04T19:21:41.808Z,6.00
2023-03-04T19:24:08.753Z,6.10
2023-03-04T19:26:35.988Z,6.00
2023-03-04T19:29:03.042Z,6.10
2023-03-04T19:31:29.936Z,6.00
2023-03-04T19:33:56.778Z,6.00
2023-03-04T19:36:25.270Z,6.10
2023-03-04T19:38:52.306Z,6.00
2023-03-04T19:41:19.258Z,6.10
2023-03-04T19:43:46.021Z,6.20
2023-03-04T19:46:16.347Z,6.20
2023-03-04T19:48:45.028Z,6.10
2023-03-04T19:51:22.980Z,6.10
2023-03-04T19:53:53.095Z,6.00
2023-03-04T19:56:20.574Z,6.00
2023-03-04T19:58:48.590Z,6.00
2023-03-04T20:01:30.730Z,5.90
2023-03-04T20:04:00.238Z,5.80
2023-03-04T20:06:27.602Z,5.80
2023-03-04T20:08:59.867Z,5.80
2023-03-04T20:11:28.284Z,5.80
2023-03-04T20:13:58.303Z,5.80
2023-03-04T20:16:25.886Z,5.80
2023-03-04T20:18:52.635Z,5.80
2023-03-04T20:21:19.893Z,5.80
2023-03-04T20:23:47.062Z,5.80
2023-03-04T20:26:13.826Z,5.80
2023-03-04T20:28:49.814Z,5.80
2023-03-04T20:31:23.917Z,5.80
2023-03-04T20:33:51.490Z,5.80
2023-03-04T20:36:20.068Z,5.80
2023-03-04T20:38:50.350Z,5.90
2023-03-04T20:41:19.134Z,5.90
2023-03-04T20:43:45.852Z,5.90
2023-03-04T20:46:29.712Z,5.90
2023-03-04T20:48:58.735Z,5.90
2023-03-04T20:51:26.315Z,5.90
2023-03-04T20:53:55.194Z,5.90
2023-03-04T20:56:22.394Z,5.90
2023-03-04T20:58:49.563Z,5.90
2023-03-04T21:01:17.535Z,5.90
2023-03-04T21:03:44.744Z,5.80
2023-03-04T21:06:13.198Z,5.90
2023-03-04T21:08:41.037Z,5.80
2023-03-04T21:11:11.040Z,5.90
2023-03-04T21:13:37.843Z,5.80
2023-03-04T21:16:05.103Z,5.80
2023-03-04T21:18:32.044Z,5.80
2023-03-04T21:20:58.787Z,5.80
2023-03-04T21:23:25.588Z,5.80
2023-03-04T21:25:52.303Z,5.80
2023-03-04T21:28:20.475Z,5.70
2023-03-04T21:30:47.347Z,5.70
2023-03-04T21:33:21.184Z,5.70
2023-03-04T21:35:48.598Z,5.70
2023-03-04T21:38:15.514Z,5.70
2023-03-04T21:40:42.999Z,5.70
2023-03-04T21:43:09.880Z,5.70
2023-03-04T21:45:37.892Z,5.70
2023-03-04T21:48:04.985Z,5.70
2023-03-04T21:50:31.765Z,5.70
2023-03-04T21:52:58.472Z,5.70
2023-03-04T21:55:25.431Z,5.70
2023-03-04T21:57:52.344Z,5.70
2023-03-04T22:00:19.620Z,5.70
2023-03-04T22:02:46.406Z,5.70
2023-03-04T22:05:13.252Z,5.70
2023-03-04T22:07:40.306Z,5.70
2023-03-04T22:10:07.601Z,5.70
2023-03-04T22:12:34.444Z,5.60
2023-03-04T22:15:01.234Z,5.70
2023-03-04T22:17:28.099Z,5.70
2023-03-04T22:19:55.214Z,5.70
2023-03-04T22:22:22.189Z,5.70
2023-03-04T22:24:48.969Z,5.70
2023-03-04T22:27:15.827Z,5.70
2023-03-04T22:29:42.633Z,5.60
2023-03-04T22:32:09.485Z,5.60
2023-03-04T22:34:36.302Z,5.60
2023-03-04T22:37:03.085Z,5.60
2023-03-04T22:39:29.910Z,5.60
2023-03-04T22:41:56.593Z,5.60
2023-03-04T22:44:23.497Z,5.50
2023-03-04T22:46:50.471Z,5.60
2023-03-04T22:49:17.444Z,5.60
2023-03-04T22:51:45.008Z,5.50
2023-03-04T22:54:16.849Z,5.60
2023-03-04T22:56:44.196Z,5.60
2023-03-04T22:59:11.051Z,5.60
2023-03-04T23:01:37.825Z,5.50
2023-03-04T23:04:04.750Z,5.50
2023-03-04T23:06:31.763Z,5.50
2023-03-04T23:08:59.534Z,5.60
2023-03-04T23:11:29.780Z,5.50
2023-03-04T23:13:57.164Z,5.50
2023-03-04T23:16:25.273Z,5.50
2023-03-04T23:18:53.253Z,5.50
2023-03-04T23:21:25.104Z,5.50
2023-03-04T23:23:52.752Z,5.50
2023-03-04T23:26:22.631Z,5.50
2023-03-04T23:28:49.687Z,5.50
2023-03-04T23:31:16.613Z,5.50
2023-03-04T23:33:45.088Z,5.50
2023-03-04T23:36:15.236Z,5.50
2023-03-04T23:38:47.367Z,5.50
2023-03-04T23:41:17.576Z,5.50
2023-03-04T23:43:44.527Z,5.50
2023-03-04T23:46:11.935Z,5.60
2023-03-04T23:48:39.808Z,5.50
2023-03-04T23:51:06.981Z,5.60
2023-03-04T23:53:34.438Z,5.60
2023-03-04T23:56:01.486Z,5.60
2023-03-04T23:58:28.133Z,5.60
